createdAt,value
2019-01-26T00:01:01.090Z,100.00
2019-01-26T00:03:30.642Z,100.00
2019-01-26T00:06:03.080Z,100.00
2019-01-26T00:08:33.327Z,100.00
2019-01-26T00:11:02.657Z,100.00
2019-01-26T00:13:32.252Z,100.00
2019-01-26T00:16:02.195Z,100.00
2019-01-26T00:18:31.623Z,100.00
2019-01-26T00:21:00.945Z,100.00
2019-01-26T00:24:16.150Z,100.00
2019-01-26T00:27:03.445Z,100.00
2019-01-26T00:29:34.047Z,100.00
2019-01-26T00:32:04.685Z,100.00
2019-01-26T00:34:34.272Z,100.00
2019-01-26T00:37:03.734Z,100.00
2019-01-26T00:39:33.683Z,100.00
2019-01-26T00:42:03.179Z,100.00
2019-01-26T00:44:32.716Z,100.00
2019-01-26T00:47:02.002Z,100.00
2019-01-26T00:49:31.338Z,100.00
2019-01-26T00:52:00.786Z,100.00
2019-01-26T00:54:30.800Z,100.00
2019-01-26T00:57:01.126Z,100.00
2019-01-26T00:59:32.629Z,100.00
2019-01-26T01:02:02.029Z,100.00
2019-01-26T01:04:31.745Z,100.00
2019-01-26T01:07:01.198Z,100.00
2019-01-26T01:09:30.636Z,100.00
2019-01-26T01:11:59.920Z,100.00
2019-01-26T01:14:30.850Z,100.00
2019-01-26T01:17:00.865Z,100.00
2019-01-26T01:19:30.806Z,100.00
2019-01-26T01:22:00.400Z,100.00
2019-01-26T01:28:14.899Z,100.00
2019-01-26T01:30:44.318Z,100.00
2019-01-26T01:33:14.263Z,100.00
2019-01-26T01:35:43.225Z,100.00
2019-01-26T01:38:12.613Z,100.00
2019-01-26T01:40:41.908Z,100.00
2019-01-26T01:43:11.643Z,100.00
2019-01-26T01:45:40.639Z,100.00
2019-01-26T01:48:10.073Z,100.00
2019-01-26T01:50:39.703Z,100.00
2019-01-26T01:53:08.711Z,100.00
2019-01-26T01:55:38.135Z,100.00
2019-01-26T01:58:07.205Z,100.00
2019-01-26T02:00:36.326Z,100.00
2019-01-26T02:03:05.168Z,100.00
2019-01-26T02:06:04.847Z,100.00
2019-01-26T02:08:52.381Z,100.00
2019-01-26T02:11:40.051Z,100.00
2019-01-26T02:14:27.449Z,100.00
2019-01-26T02:17:14.101Z,100.00
2019-01-26T02:20:00.751Z,100.00
2019-01-26T02:22:47.954Z,100.00
2019-01-26T02:25:34.526Z,100.00
2019-01-26T02:28:21.121Z,100.00
2019-01-26T02:30:49.858Z,100.00
2019-01-26T02:33:18.136Z,100.00
2019-01-26T02:35:46.098Z,100.00
2019-01-26T02:38:14.137Z,100.00
2019-01-26T02:40:42.843Z,100.00
2019-01-26T02:43:12.163Z,100.00
2019-01-26T02:45:40.414Z,100.00
2019-01-26T02:48:08.663Z,100.00
2019-01-26T02:50:37.778Z,100.00
2019-01-26T02:53:06.198Z,100.00
2019-01-26T02:55:34.508Z,100.00
2019-01-26T02:58:02.690Z,100.00
2019-01-26T03:00:31.298Z,100.00
2019-01-26T03:02:59.904Z,100.00
2019-01-26T03:05:28.946Z,100.00
2019-01-26T03:07:57.269Z,100.00
2019-01-26T03:13:37.954Z,100.00
2019-01-26T03:16:24.511Z,100.00
2019-01-26T03:19:11.000Z,100.00
2019-01-26T03:21:57.772Z,100.00
2019-01-26T03:24:44.609Z,100.00
2019-01-26T03:27:31.210Z,100.00
2019-01-26T03:30:00.223Z,100.00
2019-01-26T03:36:27.076Z,100.00
2019-01-26T03:39:13.479Z,100.00
2019-01-26T03:42:00.729Z,100.00
2019-01-26T03:44:48.948Z,100.00
2019-01-26T03:47:36.199Z,100.00
2019-01-26T03:50:23.532Z,100.00
2019-01-26T03:53:13.764Z,100.00
2019-01-26T03:56:00.831Z,100.00
2019-01-26T03:58:51.381Z,100.00
2019-01-26T04:01:20.975Z,100.00
2019-01-26T04:03:52.820Z,100.00
2019-01-26T04:06:22.195Z,100.00
2019-01-26T04:08:53.206Z,100.00
2019-01-26T04:11:22.202Z,100.00
2019-01-26T04:13:50.774Z,100.00
2019-01-26T04:16:20.357Z,100.00
2019-01-26T04:22:35.152Z,100.00
2019-01-26T04:25:22.178Z,100.00
2019-01-26T04:28:08.998Z,100.00
2019-01-26T04:30:38.847Z,100.00
2019-01-26T04:33:07.561Z,100.00
2019-01-26T04:35:39.023Z,100.00
2019-01-26T04:38:07.809Z,100.00
2019-01-26T04:40:36.684Z,100.00
2019-01-26T04:43:07.750Z,100.00
2019-01-26T04:45:39.840Z,100.00
2019-01-26T04:48:08.549Z,100.00
2019-01-26T04:50:38.924Z,100.00
2019-01-26T04:53:07.938Z,100.00
2019-01-26T04:55:37.534Z,100.00
2019-01-26T04:58:06.325Z,100.00
2019-01-26T05:00:35.500Z,100.00
2019-01-26T05:03:03.887Z,100.00
2019-01-26T05:05:32.953Z,100.00
2019-01-26T05:08:05.142Z,100.00
2019-01-26T05:10:33.505Z,100.00
2019-01-26T05:13:06.878Z,100.00
2019-01-26T05:15:35.540Z,100.00
2019-01-26T05:18:05.416Z,100.00
2019-01-26T05:20:35.634Z,100.00
2019-01-26T05:23:05.536Z,100.00
2019-01-26T05:25:36.988Z,100.00
2019-01-26T05:28:11.725Z,100.00
2019-01-26T05:30:43.681Z,100.00
2019-01-26T05:33:13.272Z,100.00
2019-01-26T05:35:42.832Z,100.00
2019-01-26T05:38:14.563Z,100.00
2019-01-26T05:40:43.497Z,100.00
2019-01-26T05:43:16.681Z,100.00
2019-01-26T05:45:48.384Z,100.00
2019-01-26T05:48:18.304Z,100.00
2019-01-26T05:50:48.748Z,100.00
2019-01-26T05:53:20.490Z,100.00
2019-01-26T05:55:50.676Z,100.00
2019-01-26T05:58:20.150Z,100.00
2019-01-26T06:00:49.005Z,100.00
2019-01-26T06:03:17.790Z,100.00
2019-01-26T06:05:47.425Z,100.00
2019-01-26T06:08:23.517Z,100.00
2019-01-26T06:10:52.842Z,100.00
2019-01-26T06:13:22.052Z,100.00
2019-01-26T06:15:55.139Z,100.00
2019-01-26T06:18:23.593Z,100.00
2019-01-26T06:27:09.547Z,100.00
2019-01-26T06:29:56.333Z,100.00
2019-01-26T06:32:26.705Z,100.00
2019-01-26T06:34:54.918Z,100.00
2019-01-26T06:37:23.078Z,100.00
2019-01-26T06:39:51.029Z,100.00
2019-01-26T06:42:19.346Z,100.00
2019-01-26T06:44:47.757Z,100.00
2019-01-26T06:47:16.119Z,100.00
2019-01-26T06:49:44.656Z,100.00
2019-01-26T06:52:13.562Z,100.00
2019-01-26T06:54:41.934Z,100.00
2019-01-26T06:57:10.165Z,100.00
2019-01-26T06:59:38.966Z,100.00
2019-01-26T07:02:07.347Z,100.00
2019-01-26T07:04:44.810Z,100.00
2019-01-26T07:07:16.734Z,100.00
2019-01-26T07:09:45.172Z,100.00
2019-01-26T07:12:14.734Z,100.00
2019-01-26T07:15:22.852Z,100.00
2019-01-26T07:18:09.884Z,100.00
2019-01-26T07:20:57.501Z,100.00
2019-01-26T07:23:44.221Z,100.00
2019-01-26T07:26:31.275Z,100.00
2019-01-26T07:29:18.174Z,100.00
2019-01-26T07:31:46.572Z,100.00
2019-01-26T07:34:18.219Z,100.00
2019-01-26T07:36:48.069Z,100.00
2019-01-26T07:39:16.448Z,100.00
2019-01-26T07:41:45.578Z,100.00
2019-01-26T07:44:14.084Z,100.00
2019-01-26T07:46:42.433Z,100.00
2019-01-26T07:49:10.924Z,100.00
2019-01-26T07:51:41.559Z,100.00
2019-01-26T07:54:10.568Z,100.00
2019-01-26T07:56:38.889Z,100.00
2019-01-26T07:59:09.043Z,100.00
2019-01-26T08:01:41.823Z,100.00
2019-01-26T08:04:10.723Z,100.00
2019-01-26T08:06:39.342Z,100.00
2019-01-26T08:09:12.112Z,100.00
2019-01-26T08:11:43.658Z,100.00
2019-01-26T08:14:12.275Z,100.00
2019-01-26T08:16:43.813Z,100.00
2019-01-26T08:19:18.504Z,100.00
2019-01-26T08:21:48.737Z,100.00
2019-01-26T08:24:17.433Z,100.00
2019-01-26T08:26:46.667Z,100.00
2019-01-26T08:29:16.634Z,100.00
2019-01-26T08:31:45.408Z,100.00
2019-01-26T08:34:16.881Z,100.00
2019-01-26T08:36:48.284Z,100.00
2019-01-26T08:39:20.794Z,100.00
2019-01-26T08:41:50.731Z,100.00
2019-01-26T08:44:18.967Z,100.00
2019-01-26T08:46:47.410Z,100.00
2019-01-26T08:49:15.494Z,100.00
2019-01-26T08:51:45.079Z,100.00
2019-01-26T08:54:13.458Z,100.00
2019-01-26T08:56:42.249Z,100.00
2019-01-26T08:59:18.038Z,100.00
2019-01-26T09:02:05.086Z,100.00
2019-01-26T09:04:35.418Z,100.00
2019-01-26T09:07:05.661Z,100.00
2019-01-26T09:09:35.632Z,100.00
2019-01-26T09:12:04.394Z,100.00
2019-01-26T09:14:32.928Z,100.00
2019-01-26T09:17:01.559Z,100.00
2019-01-26T09:19:30.210Z,100.00
2019-01-26T09:22:01.293Z,100.00
2019-01-26T09:24:30.635Z,100.00
2019-01-26T09:26:59.281Z,100.00
2019-01-26T09:29:27.562Z,100.00
2019-01-26T09:31:58.242Z,100.00
2019-01-26T09:34:29.699Z,100.00
2019-01-26T09:36:58.551Z,100.00
2019-01-26T09:39:27.278Z,100.00
2019-01-26T09:41:55.656Z,100.00
2019-01-26T09:44:25.519Z,100.00
2019-01-26T09:46:55.175Z,100.00
2019-01-26T09:49:23.849Z,100.00
2019-01-26T09:52:00.229Z,100.00
2019-01-26T09:54:33.483Z,100.00
2019-01-26T09:57:01.730Z,100.00
2019-01-26T09:59:33.475Z,100.00
2019-01-26T10:02:02.298Z,100.00
2019-01-26T10:04:31.710Z,100.00
2019-01-26T10:07:00.024Z,100.00
2019-01-26T10:10:02.634Z,100.00
2019-01-26T10:12:50.098Z,100.00
2019-01-26T10:16:51.796Z,100.00
2019-01-26T10:19:38.844Z,100.00
2019-01-26T10:22:25.659Z,100.00
2019-01-26T10:25:12.563Z,100.00
2019-01-26T10:27:59.638Z,100.00
2019-01-26T10:30:42.988Z,100.00
2019-01-26T10:33:11.965Z,100.00
2019-01-26T10:36:09.456Z,100.00
2019-01-26T10:38:42.306Z,100.00
2019-01-26T10:41:31.217Z,100.00
2019-01-26T10:43:59.685Z,100.00
2019-01-26T10:46:27.664Z,100.00
2019-01-26T10:49:00.787Z,100.00
2019-01-26T10:51:28.627Z,100.00
2019-01-26T10:53:57.139Z,100.00
2019-01-26T10:56:25.334Z,100.00
2019-01-26T10:58:53.705Z,100.00
2019-01-26T11:01:23.617Z,100.00
2019-01-26T11:03:52.063Z,100.00
2019-01-26T11:06:20.631Z,100.00
2019-01-26T11:08:49.094Z,100.00
2019-01-26T11:11:20.573Z,100.00
2019-01-26T11:13:49.341Z,100.00
2019-01-26T11:16:18.656Z,100.00
2019-01-26T11:18:47.490Z,100.00
2019-01-26T11:21:18.528Z,100.00
2019-01-26T11:23:48.253Z,100.00
2019-01-26T11:26:16.518Z,100.00
2019-01-26T11:28:46.443Z,100.00
2019-01-26T11:31:19.501Z,100.00
2019-01-26T11:33:48.192Z,100.00
2019-01-26T11:36:16.578Z,100.00
2019-01-26T11:38:44.621Z,100.00
2019-01-26T11:41:12.664Z,100.00
2019-01-26T11:43:42.073Z,100.00
2019-01-26T11:46:23.796Z,100.00
2019-01-26T11:48:53.595Z,100.00
2019-01-26T11:54:58.893Z,100.00
2019-01-26T11:57:45.480Z,100.00
2019-01-26T12:00:45.932Z,100.00
2019-01-26T12:03:51.173Z,100.00
2019-01-26T12:06:35.267Z,100.00
2019-01-26T12:09:08.599Z,100.00
2019-01-26T12:11:36.879Z,100.00
2019-01-26T12:14:05.565Z,100.00
2019-01-26T12:16:33.689Z,100.00
2019-01-26T12:19:01.822Z,100.00
2019-01-26T12:21:29.855Z,100.00
2019-01-26T12:24:01.485Z,100.00
2019-01-26T12:26:29.721Z,100.00
2019-01-26T12:28:57.682Z,100.00
2019-01-26T12:31:26.625Z,100.00
2019-01-26T12:33:57.642Z,100.00
2019-01-26T12:36:28.808Z,100.00
2019-01-26T12:38:57.519Z,100.00
2019-01-26T12:41:25.498Z,100.00
2019-01-26T12:43:53.528Z,100.00
2019-01-26T12:46:21.733Z,100.00
2019-01-26T12:48:50.131Z,100.00
2019-01-26T12:51:18.770Z,100.00
2019-01-26T12:53:46.917Z,100.00
2019-01-26T12:56:15.881Z,100.00
2019-01-26T12:58:44.049Z,100.00
2019-01-26T13:01:12.260Z,100.00
2019-01-26T13:03:41.127Z,100.00
2019-01-26T13:06:10.055Z,100.00
2019-01-26T13:08:38.542Z,100.00
2019-01-26T13:11:20.385Z,100.00
2019-01-26T13:13:48.766Z,100.00
2019-01-26T13:16:17.227Z,100.00
2019-01-26T13:18:45.419Z,100.00
2019-01-26T13:21:14.226Z,100.00
2019-01-26T13:23:42.538Z,100.00
2019-01-26T13:26:10.798Z,100.00
2019-01-26T13:28:38.941Z,100.00
2019-01-26T13:34:35.016Z,99.93
2019-01-26T13:37:21.384Z,99.81
2019-01-26T13:40:11.446Z,99.70
2019-01-26T13:42:59.183Z,99.56
2019-01-26T13:45:45.362Z,99.50
2019-01-26T13:48:32.222Z,99.39
2019-01-26T13:51:18.658Z,99.20
2019-01-26T13:54:05.151Z,99.24
2019-01-26T13:56:52.105Z,99.08
2019-01-26T13:59:38.812Z,99.02
2019-01-26T14:02:10.468Z,98.86
2019-01-26T14:08:18.570Z,98.67
2019-01-26T14:11:05.327Z,98.69
2019-01-26T14:17:04.601Z,99.05
2019-01-26T14:19:52.154Z,99.11
2019-01-26T14:22:39.479Z,99.17
2019-01-26T14:25:27.088Z,99.30
2019-01-26T14:28:15.005Z,99.32
2019-01-26T14:30:48.384Z,99.33
2019-01-26T14:33:18.347Z,99.31
2019-01-26T14:35:48.050Z,99.30
2019-01-26T14:38:18.272Z,99.33
2019-01-26T14:40:48.667Z,99.34
2019-01-26T14:43:18.795Z,99.39
2019-01-26T14:45:48.215Z,99.44
2019-01-26T14:48:18.315Z,99.39
2019-01-26T14:50:48.138Z,99.42
2019-01-26T14:53:18.094Z,99.43
2019-01-26T14:55:48.998Z,99.54
2019-01-26T14:58:18.379Z,99.56
2019-01-26T15:00:47.912Z,99.55
2019-01-26T15:03:21.925Z,99.55
2019-01-26T15:05:51.842Z,99.50
2019-01-26T15:08:21.919Z,99.51
2019-01-26T15:10:54.267Z,99.62
2019-01-26T15:13:25.253Z,99.62
2019-01-26T15:15:54.547Z,99.62
2019-01-26T15:18:25.291Z,99.58
2019-01-26T15:20:54.561Z,99.56
2019-01-26T15:23:24.960Z,99.56
2019-01-26T15:25:54.769Z,99.58
2019-01-26T15:28:24.604Z,99.55
2019-01-26T15:30:54.183Z,99.60
2019-01-26T15:33:23.674Z,99.50
2019-01-26T15:35:53.011Z,99.39
2019-01-26T15:38:22.427Z,99.27
2019-01-26T15:41:09.752Z,99.18
2019-01-26T15:43:57.619Z,99.05
2019-01-26T15:46:45.088Z,98.89
2019-01-26T15:49:34.673Z,98.74
2019-01-26T15:52:22.471Z,98.47
2019-01-26T15:55:18.172Z,98.31
2019-01-26T15:58:06.501Z,98.21
2019-01-26T16:00:38.537Z,98.01
2019-01-26T16:03:10.580Z,97.83
2019-01-26T16:05:41.517Z,97.58
2019-01-26T16:08:11.191Z,97.36
2019-01-26T16:10:45.549Z,97.28
2019-01-26T16:13:15.234Z,97.10
2019-01-26T16:15:44.587Z,97.12
2019-01-26T16:18:17.991Z,96.94
2019-01-26T16:20:48.874Z,96.82
2019-01-26T16:23:18.565Z,96.76
2019-01-26T16:25:48.794Z,96.74
2019-01-26T16:28:19.343Z,96.79
2019-01-26T16:30:50.275Z,96.88
2019-01-26T16:33:20.826Z,97.05
2019-01-26T16:35:56.342Z,97.12
2019-01-26T16:38:28.426Z,97.12
2019-01-26T16:41:01.033Z,97.25
2019-01-26T16:43:33.035Z,97.34
2019-01-26T16:46:03.495Z,97.33
2019-01-26T16:48:34.607Z,97.39
2019-01-26T16:51:07.091Z,97.57
2019-01-26T16:53:36.845Z,97.86
2019-01-26T16:56:08.759Z,98.04
2019-01-26T16:58:40.974Z,98.18
2019-01-26T17:01:14.126Z,98.46
2019-01-26T17:03:43.981Z,98.56
2019-01-26T17:06:14.801Z,98.67
2019-01-26T17:08:54.451Z,98.79
2019-01-26T17:11:24.797Z,98.88
2019-01-26T17:14:01.931Z,98.80
2019-01-26T17:16:33.995Z,98.84
2019-01-26T17:19:09.382Z,98.83
2019-01-26T17:21:42.842Z,98.78
2019-01-26T17:24:12.458Z,98.73
2019-01-26T17:26:52.738Z,98.72
2019-01-26T17:29:21.416Z,98.65
2019-01-26T17:31:51.136Z,98.60
2019-01-26T17:34:20.716Z,98.49
2019-01-26T17:40:23.950Z,98.71
2019-01-26T17:43:11.547Z,99.04
2019-01-26T17:46:04.219Z,99.33
2019-01-26T17:48:55.534Z,99.53
2019-01-26T17:51:43.715Z,99.73
2019-01-26T17:54:33.922Z,99.78
2019-01-26T17:57:25.118Z,99.77
2019-01-26T17:59:56.236Z,99.81
2019-01-26T18:02:30.238Z,99.87
2019-01-26T18:05:03.635Z,99.87
2019-01-26T18:07:36.650Z,99.90
2019-01-26T18:10:07.739Z,99.98
2019-01-26T18:15:33.220Z,100.00
2019-01-26T18:18:04.852Z,100.00
2019-01-26T18:20:35.258Z,100.00
2019-01-26T18:23:09.867Z,100.00
2019-01-26T18:25:43.630Z,100.00
2019-01-26T18:28:19.743Z,100.00
2019-01-26T18:30:51.926Z,100.00
2019-01-26T18:33:22.948Z,100.00
2019-01-26T18:35:55.375Z,100.00
2019-01-26T18:38:25.220Z,100.00
2019-01-26T18:40:59.861Z,100.00
2019-01-26T18:43:30.708Z,100.00
2019-01-26T18:46:00.009Z,100.00
2019-01-26T18:48:33.095Z,100.00
2019-01-26T18:51:27.018Z,100.00
2019-01-26T18:53:58.269Z,99.99
2019-01-26T18:56:29.229Z,99.86
2019-01-26T18:59:00.516Z,99.81
2019-01-26T19:01:35.276Z,99.82
2019-01-26T19:04:15.247Z,99.82
2019-01-26T19:06:55.548Z,99.82
2019-01-26T19:09:25.585Z,99.81
2019-01-26T19:11:56.397Z,99.88
2019-01-26T19:14:31.611Z,99.94
2019-01-26T19:17:01.678Z,99.96
2019-01-26T19:19:51.571Z,99.89
2019-01-26T19:22:39.677Z,99.68
2019-01-26T19:25:27.986Z,99.31
2019-01-26T19:28:15.230Z,99.09
2019-01-26T19:30:44.573Z,98.96
2019-01-26T19:33:15.742Z,98.79
2019-01-26T19:35:49.686Z,98.69
2019-01-26T19:38:19.402Z,98.76
2019-01-26T19:40:52.499Z,98.70
2019-01-26T19:43:32.849Z,98.79
2019-01-26T19:46:10.422Z,98.88
2019-01-26T19:48:47.118Z,98.95
2019-01-26T19:51:17.652Z,99.14
2019-01-26T19:54:22.145Z,99.41
2019-01-26T19:57:09.604Z,99.60
2019-01-26T19:59:58.043Z,99.80
2019-01-26T20:02:27.926Z,99.87
2019-01-26T20:04:57.694Z,99.91
2019-01-26T20:07:34.885Z,99.92
2019-01-26T20:10:06.618Z,99.80
2019-01-26T20:12:37.544Z,99.85
2019-01-26T20:15:23.776Z,99.94
2019-01-26T20:18:12.981Z,100.00
2019-01-26T20:21:10.605Z,100.00
2019-01-26T20:30:04.714Z,99.62
2019-01-26T20:32:42.837Z,99.33
2019-01-26T20:35:12.986Z,99.16
2019-01-26T20:37:47.002Z,99.04
2019-01-26T20:40:21.461Z,99.03
2019-01-26T20:42:54.491Z,98.91
2019-01-26T20:45:30.418Z,98.66
2019-01-26T20:48:05.489Z,98.50
2019-01-26T20:50:35.868Z,98.38
2019-01-26T20:53:05.902Z,98.29
2019-01-26T20:55:43.813Z,98.39
2019-01-26T20:58:18.418Z,98.32
2019-01-26T21:00:52.784Z,98.30
2019-01-26T21:03:22.450Z,98.39
2019-01-26T21:05:54.048Z,98.51
2019-01-26T21:08:26.654Z,98.54
2019-01-26T21:11:05.322Z,98.50
2019-01-26T21:13:52.542Z,98.53
2019-01-26T21:16:43.147Z,98.33
2019-01-26T21:19:30.761Z,98.22
2019-01-26T21:22:17.898Z,98.29
2019-01-26T21:25:06.509Z,98.30
2019-01-26T21:27:57.069Z,98.35
2019-01-26T21:30:32.431Z,98.03
2019-01-26T21:33:05.185Z,97.59
2019-01-26T21:35:38.684Z,97.04
2019-01-26T21:38:07.583Z,96.48
2019-01-26T21:40:40.505Z,95.70
2019-01-26T21:43:13.460Z,95.30
2019-01-26T21:45:43.814Z,94.88
2019-01-26T21:49:10.768Z,94.37
2019-01-26T21:52:01.724Z,94.08
2019-01-26T21:54:49.393Z,93.69
2019-01-26T21:57:39.619Z,94.28
2019-01-26T22:00:32.518Z,93.62
2019-01-26T22:03:02.654Z,93.54
2019-01-26T22:05:32.089Z,93.75
2019-01-26T22:08:01.424Z,93.26
2019-01-26T22:10:54.492Z,93.09
2019-01-26T22:13:44.101Z,93.24
2019-01-26T22:16:33.989Z,92.99
2019-01-26T22:22:54.649Z,92.80
2019-01-26T22:25:42.326Z,92.84
2019-01-26T22:28:29.839Z,92.68
2019-01-26T22:30:58.808Z,92.47
2019-01-26T22:33:28.895Z,92.48
2019-01-26T22:35:58.058Z,92.29
2019-01-26T22:38:27.152Z,92.61
2019-01-26T22:40:56.481Z,92.27
2019-01-26T22:43:30.095Z,92.32
2019-01-26T22:45:59.144Z,92.20
2019-01-26T22:48:31.855Z,91.83
2019-01-26T22:52:17.697Z,91.41
2019-01-26T22:55:07.698Z,91.32
2019-01-26T22:57:55.768Z,91.31
2019-01-26T23:01:02.689Z,91.44
2019-01-26T23:03:44.442Z,91.49
2019-01-26T23:06:54.556Z,91.23
2019-01-26T23:09:35.742Z,91.78
2019-01-26T23:12:45.599Z,91.60
2019-01-26T23:16:11.168Z,91.23
2019-01-26T23:19:44.743Z,91.25
2019-01-26T23:22:47.870Z,90.84
2019-01-26T23:25:41.510Z,91.04
2019-01-26T23:28:31.881Z,90.64
2019-01-26T23:31:21.580Z,90.66
2019-01-26T23:33:52.091Z,90.65
2019-01-26T23:36:21.223Z,90.61
2019-01-26T23:38:50.766Z,90.94
2019-01-26T23:41:23.088Z,90.65
2019-01-26T23:43:52.822Z,90.78
2019-01-26T23:46:22.369Z,90.55
2019-01-26T23:48:51.224Z,90.11
2019-01-26T23:51:20.042Z,90.26
2019-01-26T23:53:49.092Z,90.17
2019-01-26T23:56:17.930Z,90.06
2019-01-26T23:58:46.841Z,89.93
